map of NAT home
NAT - Airport
Location
City:  Natal, Rio Grande do Norte, Brazil
Near (Alt.):São Gonçalo do Amarante
Name:Greater Natal International Airport
Old (Alt.):Governador Aluízio Alves International Airport
ICAO:SBSG
IATA:NAT

Details
Type:Airport (Aerodrome, Airfield)
Use:Public/Civil, International (customs port of entry)
Latitude:5°46'08"S (-5.768888)
Longitude:35°21'59"W (-35.366388)
Elevation:272 ft (83 m)
Variation:21.33°W (WMM2015 magnetic declination)
0.04° annual change
Runways:1
Longest:9843 × 197 ft (3000 × 60 m), paved

Time
Time Zone:UTC-3
Local Time:

Weather
METAR:SBSG 171500Z 14018KT 9999 BKN029 30/22 Q1013

Related Locations
Nearby:
Farthest:ULI: 11999 mi / 19310 km
Falalop Island [Ulithi Civil Airfield], Ulithi Atoll, YAP, FM

Find:

   beyond  
but within

Other Information
Maps:
NOTAMs:
Links:
Sources:

  
  • flag of Brazil
  • flag of Rio Grande do Norte
  • flag of Natal
  

Sectional Chart

Flight Planning
at skyvector.com

Satellite Image

Google Maps Satellite view

 

Copyright © 2004-2018 Karl L. Swartz. All rights reserved.
The Great Circle Mapper name and logo are trademarks of the Great Circle Mapper.
All other trademarks mentioned herein belong to their respective owners.
Please see credits for attibutions and further copyright information.

  Follow gcmap on Facebook Follow gcmap on Twitter Follow gcmap on Google+ GCmap on LinkedIn

hCard Microformat

Geo Microformat